Time;durP1;ratioP1;P1;durP2;ratioP2;P2;SDS_P1;SDS_P2;PMS_P1;PMS_P2;Temp;Humidity;BMP_temperature;BMP_pressure;BME280_temperature;BME280_humidity;BME280_pressure;Samples;Min_cycle;Max_cycle;Signal;HPM_P1;HPM_P2
2020/12/13 00:01:12;;;;;;;23.47;14.53;;;;;;;;;;5034361;28;20204;-74
2020/12/13 00:03:37;;;;;;;25.17;15.87;;;;;;;;;;5037703;28;20201;-73
2020/12/13 00:06:02;;;;;;;24.53;15.13;;;;;;;;;;5036272;28;20349;-74
2020/12/13 00:08:27;;;;;;;31.73;15.93;;;;;;;;;;5034578;28;20169;-73
2020/12/13 00:10:55;;;;;;;33.30;15.77;;;;;;;;;;5036081;28;20281;-73
2020/12/13 00:13:20;;;;;;;37.83;18.03;;;;;;;;;;5034518;28;20223;-74
2020/12/13 00:15:45;;;;;;;39.47;19.93;;;;;;;;;;5036704;28;20185;-73
2020/12/13 00:18:10;;;;;;;33.87;19.53;;;;;;;;;;5037314;28;20593;-73
2020/12/13 00:20:35;;;;;;;38.20;18.87;;;;;;;;;;5038780;28;20243;-73
2020/12/13 00:23:00;;;;;;;35.20;17.73;;;;;;;;;;5032855;28;20220;-73
2020/12/13 00:25:26;;;;;;;31.13;17.90;;;;;;;;;;5035620;28;21006;-73
2020/12/13 00:27:51;;;;;;;34.53;19.53;;;;;;;;;;5045624;28;20247;-73
2020/12/13 00:30:16;;;;;;;43.70;20.63;;;;;;;;;;5032798;28;20674;-73
2020/12/13 00:32:41;;;;;;;42.20;22.47;;;;;;;;;;5038647;28;20205;-73
2020/12/13 00:35:06;;;;;;;38.00;20.80;;;;;;;;;;5035138;28;20903;-73
2020/12/13 00:37:32;;;;;;;42.53;21.10;;;;;;;;;;5033674;28;20264;-73
2020/12/13 00:39:57;;;;;;;50.70;23.90;;;;;;;;;;5032331;28;20181;-73
2020/12/13 00:42:22;;;;;;;39.67;21.27;;;;;;;;;;5036997;28;20205;-74
2020/12/13 00:44:47;;;;;;;44.20;22.70;;;;;;;;;;5026040;28;20206;-73
2020/12/13 00:47:13;;;;;;;39.10;22.23;;;;;;;;;;5035207;28;20178;-74
2020/12/13 00:49:38;;;;;;;43.70;22.17;;;;;;;;;;5051093;28;20178;-74
2020/12/13 00:52:04;;;;;;;39.93;20.90;;;;;;;;;;5040706;28;20259;-74
2020/12/13 00:54:30;;;;;;;41.57;21.30;;;;;;;;;;5033987;28;20595;-73
2020/12/13 00:56:55;;;;;;;38.20;21.40;;;;;;;;;;5033766;28;20851;-73
2020/12/13 00:59:20;;;;;;;43.77;22.10;;;;;;;;;;5038433;28;20199;-73
2020/12/13 01:01:45;;;;;;;40.30;21.57;;;;;;;;;;5034745;28;20897;-74
2020/12/13 01:04:10;;;;;;;41.30;21.03;;;;;;;;;;5031392;28;20173;-73
2020/12/13 01:06:36;;;;;;;42.80;23.47;;;;;;;;;;5030560;28;20677;-73
2020/12/13 01:09:01;;;;;;;42.40;22.37;;;;;;;;;;5031562;28;20179;-74
2020/12/13 01:11:26;;;;;;;44.87;23.30;;;;;;;;;;5036777;28;20193;-74
2020/12/13 01:13:52;;;;;;;41.93;22.50;;;;;;;;;;5032638;28;20298;-74
2020/12/13 01:16:17;;;;;;;43.90;24.27;;;;;;;;;;5029352;28;20236;-73
2020/12/13 01:18:43;;;;;;;47.43;25.60;;;;;;;;;;5029444;28;20238;-73
2020/12/13 01:21:13;;;;;;;40.67;22.60;;;;;;;;;;5027760;28;20432;-73
2020/12/13 01:23:38;;;;;;;44.23;23.17;;;;;;;;;;5030702;28;20826;-73
2020/12/13 01:26:03;;;;;;;41.83;24.17;;;;;;;;;;5029725;28;20205;-74
2020/12/13 01:28:28;;;;;;;47.63;24.77;;;;;;;;;;5037915;28;20181;-74
2020/12/13 01:30:53;;;;;;;47.77;23.23;;;;;;;;;;5031534;28;20671;-75
2020/12/13 01:33:18;;;;;;;42.73;21.67;;;;;;;;;;5030114;28;20187;-75
2020/12/13 01:35:44;;;;;;;42.50;22.97;;;;;;;;;;5033178;28;20306;-74
2020/12/13 01:38:09;;;;;;;46.40;23.47;;;;;;;;;;5031811;28;20201;-74
2020/12/13 01:40:34;;;;;;;37.67;22.93;;;;;;;;;;5030277;28;20178;-74
2020/12/13 01:42:59;;;;;;;40.37;21.83;;;;;;;;;;5033175;28;20577;-74
2020/12/13 01:45:24;;;;;;;50.03;24.43;;;;;;;;;;5028095;28;20198;-74
2020/12/13 01:47:51;;;;;;;38.80;22.33;;;;;;;;;;5028100;28;20178;-74
2020/12/13 01:53:17;;;;;;;38.27;22.20;;;;;;;;;;5026957;28;20206;-74
2020/12/13 01:55:43;;;;;;;39.17;22.67;;;;;;;;;;5046677;28;20239;-74
2020/12/13 01:58:12;;;;;;;46.53;23.03;;;;;;;;;;5030419;28;20570;-74
2020/12/13 02:00:37;;;;;;;41.03;22.63;;;;;;;;;;5028657;28;20185;-74
2020/12/13 02:03:04;;;;;;;42.30;22.83;;;;;;;;;;5029227;28;20586;-74
2020/12/13 02:05:29;;;;;;;39.80;22.07;;;;;;;;;;5031213;28;20213;-73
2020/12/13 02:07:55;;;;;;;35.93;20.40;;;;;;;;;;5043839;28;20189;-74
2020/12/13 02:10:21;;;;;;;41.30;21.53;;;;;;;;;;5037248;28;20183;-74
2020/12/13 02:12:47;;;;;;;42.40;21.33;;;;;;;;;;5030919;28;20260;-74
2020/12/13 02:15:12;;;;;;;41.17;21.40;;;;;;;;;;5028376;28;20254;-74
2020/12/13 02:17:37;;;;;;;45.53;23.03;;;;;;;;;;5029652;28;20550;-74
2020/12/13 02:20:07;;;;;;;41.40;21.37;;;;;;;;;;5030056;28;20277;-74
2020/12/13 02:22:33;;;;;;;41.57;21.57;;;;;;;;;;5028955;28;20216;-74
2020/12/13 02:25:08;;;;;;;37.23;19.10;;;;;;;;;;5028705;28;20199;-74
2020/12/13 02:27:33;;;;;;;42.10;20.93;;;;;;;;;;5029126;28;20181;-74
2020/12/13 02:29:58;;;;;;;39.90;20.93;;;;;;;;;;5031834;28;20181;-74
2020/12/13 02:32:24;;;;;;;41.93;21.33;;;;;;;;;;5028373;28;20197;-74
2020/12/13 02:34:49;;;;;;;41.33;21.03;;;;;;;;;;5028028;28;20189;-74
2020/12/13 02:37:15;;;;;;;44.03;21.40;;;;;;;;;;5028796;28;20415;-74
2020/12/13 02:39:40;;;;;;;42.97;22.57;;;;;;;;;;5030153;28;20206;-73
2020/12/13 02:42:06;;;;;;;41.63;22.03;;;;;;;;;;5032425;28;20300;-74
2020/12/13 02:44:31;;;;;;;46.53;23.93;;;;;;;;;;5028911;28;20193;-74
2020/12/13 02:46:57;;;;;;;39.90;20.50;;;;;;;;;;5036704;28;20235;-74
2020/12/13 02:49:22;;;;;;;41.47;22.40;;;;;;;;;;5031453;28;20184;-74
2020/12/13 02:51:47;;;;;;;39.00;21.60;;;;;;;;;;5028307;28;20294;-74
2020/12/13 02:54:12;;;;;;;40.83;22.50;;;;;;;;;;5028008;28;20183;-73
2020/12/13 02:56:40;;;;;;;41.70;22.10;;;;;;;;;;5030134;28;20181;-73
2020/12/13 02:59:05;;;;;;;42.33;23.50;;;;;;;;;;5028212;28;20302;-72
2020/12/13 03:01:30;;;;;;;42.67;21.47;;;;;;;;;;5028527;28;20663;-73
2020/12/13 03:03:55;;;;;;;40.30;21.63;;;;;;;;;;5043898;28;20212;-73
2020/12/13 03:06:21;;;;;;;42.13;22.93;;;;;;;;;;5031305;28;20260;-74
2020/12/13 03:08:46;;;;;;;41.33;21.80;;;;;;;;;;5029241;28;20673;-74
2020/12/13 03:11:11;;;;;;;42.80;21.80;;;;;;;;;;5030217;28;20174;-74
2020/12/13 03:13:36;;;;;;;44.07;22.43;;;;;;;;;;5026870;28;20291;-73
2020/12/13 03:16:01;;;;;;;47.03;23.63;;;;;;;;;;5027241;28;20190;-74
2020/12/13 03:18:27;;;;;;;50.23;22.37;;;;;;;;;;5029771;28;21240;-73
2020/12/13 03:20:52;;;;;;;41.17;20.90;;;;;;;;;;5031505;28;20256;-73
2020/12/13 03:23:17;;;;;;;42.40;22.20;;;;;;;;;;5025312;28;20243;-73
2020/12/13 03:25:43;;;;;;;42.17;20.70;;;;;;;;;;5026242;28;20201;-73
2020/12/13 03:28:08;;;;;;;46.97;22.57;;;;;;;;;;5027658;28;20178;-73
2020/12/13 03:30:33;;;;;;;42.73;22.23;;;;;;;;;;5028566;28;20204;-73
2020/12/13 03:32:58;;;;;;;43.83;21.00;;;;;;;;;;5033234;28;20209;-73
2020/12/13 03:35:23;;;;;;;46.03;22.27;;;;;;;;;;5024624;28;20224;-73
2020/12/13 03:37:49;;;;;;;41.03;21.00;;;;;;;;;;5025478;28;21300;-73
2020/12/13 03:40:14;;;;;;;42.33;20.30;;;;;;;;;;5025295;28;20174;-73
2020/12/13 03:42:41;;;;;;;41.60;19.07;;;;;;;;;;5028469;28;20301;-74
2020/12/13 03:45:06;;;;;;;36.83;18.83;;;;;;;;;;5024882;28;20202;-74
2020/12/13 03:47:32;;;;;;;34.93;17.60;;;;;;;;;;5029763;28;20185;-74
2020/12/13 03:49:57;;;;;;;43.30;19.40;;;;;;;;;;5027915;28;20185;-73
2020/12/13 03:52:22;;;;;;;39.17;18.47;;;;;;;;;;5033975;28;20629;-73
2020/12/13 03:54:48;;;;;;;38.07;17.57;;;;;;;;;;5028967;28;20196;-72
2020/12/13 03:57:13;;;;;;;35.73;17.63;;;;;;;;;;5026243;28;20185;-73
2020/12/13 03:59:38;;;;;;;31.90;16.73;;;;;;;;;;5027351;28;20667;-73
2020/12/13 04:02:04;;;;;;;35.50;18.17;;;;;;;;;;5027979;28;20182;-73
2020/12/13 04:04:29;;;;;;;27.43;15.10;;;;;;;;;;5026134;28;20192;-73
2020/12/13 04:06:54;;;;;;;33.13;15.90;;;;;;;;;;5028091;28;20205;-73
2020/12/13 04:09:20;;;;;;;31.30;15.13;;;;;;;;;;5029314;28;20667;-73
2020/12/13 04:11:45;;;;;;;27.57;15.20;;;;;;;;;;5032210;28;20175;-73
2020/12/13 04:14:10;;;;;;;32.33;15.93;;;;;;;;;;5027311;28;20536;-73
2020/12/13 04:16:36;;;;;;;28.67;15.13;;;;;;;;;;5031036;28;20188;-74
2020/12/13 04:19:01;;;;;;;27.40;15.57;;;;;;;;;;5030815;28;20174;-73
2020/12/13 04:21:27;;;;;;;28.93;15.60;;;;;;;;;;5031859;28;20180;-74
2020/12/13 04:23:52;;;;;;;27.80;14.27;;;;;;;;;;5046770;28;20718;-74
2020/12/13 04:26:18;;;;;;;28.90;16.10;;;;;;;;;;5029024;28;20212;-73
2020/12/13 04:28:43;;;;;;;27.27;15.00;;;;;;;;;;5035028;28;20215;-73
2020/12/13 04:31:08;;;;;;;26.67;14.80;;;;;;;;;;5033694;28;20247;-73
2020/12/13 04:33:33;;;;;;;23.97;13.67;;;;;;;;;;5045590;28;20285;-73
2020/12/13 04:35:58;;;;;;;26.50;14.37;;;;;;;;;;5040432;28;20193;-73
2020/12/13 04:38:23;;;;;;;30.43;15.17;;;;;;;;;;5031390;28;20663;-73
2020/12/13 04:40:49;;;;;;;28.13;14.60;;;;;;;;;;5031062;28;21106;-73
2020/12/13 04:43:14;;;;;;;24.17;13.50;;;;;;;;;;5031179;28;20284;-73
2020/12/13 04:45:40;;;;;;;25.77;14.27;;;;;;;;;;5029565;28;20206;-73
2020/12/13 04:48:06;;;;;;;27.93;13.43;;;;;;;;;;5031638;28;20201;-73
2020/12/13 04:50:33;;;;;;;24.97;13.67;;;;;;;;;;5030507;28;20889;-73
2020/12/13 04:52:58;;;;;;;24.67;12.27;;;;;;;;;;5030332;28;20199;-74
2020/12/13 04:55:24;;;;;;;24.03;14.30;;;;;;;;;;5045842;28;20657;-73
2020/12/13 04:57:49;;;;;;;24.53;12.50;;;;;;;;;;5032787;28;20182;-73
2020/12/13 05:00:17;;;;;;;26.97;13.00;;;;;;;;;;5030130;28;20678;-73
2020/12/13 05:02:42;;;;;;;27.37;13.33;;;;;;;;;;5033143;28;20229;-73
2020/12/13 05:05:10;;;;;;;24.87;13.60;;;;;;;;;;5030414;28;20276;-73
2020/12/13 05:07:35;;;;;;;27.83;12.93;;;;;;;;;;5032627;28;20212;-74
2020/12/13 05:10:01;;;;;;;28.30;13.70;;;;;;;;;;5031816;28;20181;-74
2020/12/13 05:12:26;;;;;;;22.80;13.60;;;;;;;;;;5031185;28;20305;-73
2020/12/13 05:14:52;;;;;;;26.83;12.20;;;;;;;;;;5032301;28;20950;-74
2020/12/13 05:17:17;;;;;;;29.93;14.57;;;;;;;;;;5027216;28;20221;-73
2020/12/13 05:19:43;;;;;;;22.77;12.07;;;;;;;;;;5030322;28;20273;-73
2020/12/13 05:22:08;;;;;;;19.43;11.67;;;;;;;;;;5031198;28;20574;-73
2020/12/13 05:24:34;;;;;;;27.03;13.97;;;;;;;;;;5030982;28;20650;-74
2020/12/13 05:27:05;;;;;;;25.73;13.77;;;;;;;;;;5030134;28;20251;-73
2020/12/13 05:29:32;;;;;;;23.23;13.03;;;;;;;;;;5036028;28;20269;-73
2020/12/13 05:32:27;;;;;;;27.20;15.40;;;;;;;;;;5032902;28;20231;-74
2020/12/13 05:34:52;;;;;;;28.90;14.73;;;;;;;;;;5028459;28;20189;-74
2020/12/13 05:37:18;;;;;;;27.43;14.40;;;;;;;;;;5032132;28;20324;-73
2020/12/13 05:39:44;;;;;;;22.47;14.00;;;;;;;;;;5028621;28;20189;-73
2020/12/13 05:42:11;;;;;;;31.57;15.83;;;;;;;;;;5029578;28;20233;-73
2020/12/13 05:47:53;;;;;;;29.63;15.97;;;;;;;;;;5030196;28;20189;-73
2020/12/13 05:52:52;;;;;;;32.00;16.07;;;;;;;;;;5030878;28;20216;-73
2020/12/13 05:55:18;;;;;;;30.67;15.50;;;;;;;;;;5027570;28;20273;-73
2020/12/13 05:57:43;;;;;;;31.90;16.57;;;;;;;;;;5029007;28;20188;-73
2020/12/13 06:00:09;;;;;;;30.43;15.00;;;;;;;;;;5027976;28;20235;-72
2020/12/13 06:02:36;;;;;;;32.23;15.60;;;;;;;;;;5033940;28;20632;-73
2020/12/13 06:05:02;;;;;;;36.07;16.03;;;;;;;;;;5047761;28;20217;-73
2020/12/13 06:07:30;;;;;;;28.90;15.53;;;;;;;;;;5035316;28;20256;-73
2020/12/13 06:09:56;;;;;;;30.40;15.87;;;;;;;;;;5031650;28;20611;-73
2020/12/13 06:12:25;;;;;;;28.17;16.37;;;;;;;;;;5044462;28;20220;-73
2020/12/13 06:14:54;;;;;;;24.80;15.77;;;;;;;;;;5028250;28;20640;-73
2020/12/13 06:17:20;;;;;;;33.27;16.40;;;;;;;;;;5030435;28;20617;-73
2020/12/13 06:19:46;;;;;;;27.27;15.40;;;;;;;;;;5028132;28;20182;-73
2020/12/13 06:22:12;;;;;;;29.70;15.43;;;;;;;;;;5030345;28;20270;-73
2020/12/13 06:24:37;;;;;;;31.03;16.37;;;;;;;;;;5029196;28;20308;-72
2020/12/13 06:27:03;;;;;;;26.33;14.27;;;;;;;;;;5030946;28;20632;-73
2020/12/13 06:29:29;;;;;;;26.63;15.90;;;;;;;;;;5029247;28;20188;-73
2020/12/13 06:31:54;;;;;;;24.00;14.57;;;;;;;;;;5036025;28;20192;-73
2020/12/13 06:34:19;;;;;;;25.43;15.00;;;;;;;;;;5028494;28;20185;-73
2020/12/13 06:36:45;;;;;;;26.80;14.83;;;;;;;;;;5028202;28;20694;-73
2020/12/13 06:39:14;;;;;;;28.63;14.47;;;;;;;;;;5026840;28;20621;-73
2020/12/13 06:41:51;;;;;;;26.03;15.80;;;;;;;;;;5030435;28;20182;-73
2020/12/13 06:44:17;;;;;;;28.13;15.33;;;;;;;;;;5028438;28;20206;-73
2020/12/13 06:46:43;;;;;;;29.10;16.80;;;;;;;;;;5028654;28;20302;-73
2020/12/13 06:49:09;;;;;;;28.53;16.60;;;;;;;;;;5028548;28;20189;-73
2020/12/13 06:51:35;;;;;;;26.90;15.53;;;;;;;;;;5027416;28;20326;-73
2020/12/13 06:54:01;;;;;;;30.47;16.93;;;;;;;;;;5027413;28;21468;-73
2020/12/13 06:56:27;;;;;;;43.40;19.03;;;;;;;;;;5027335;28;20178;-73
2020/12/13 06:58:56;;;;;;;29.13;16.27;;;;;;;;;;5028476;28;20186;-73
2020/12/13 07:01:24;;;;;;;36.97;19.17;;;;;;;;;;5025737;28;20793;-73
2020/12/13 07:03:50;;;;;;;31.13;17.13;;;;;;;;;;5026559;28;20296;-73
2020/12/13 07:06:19;;;;;;;32.83;16.77;;;;;;;;;;5026552;28;20210;-73
2020/12/13 07:08:48;;;;;;;31.67;17.47;;;;;;;;;;5041429;28;20186;-73
2020/12/13 07:11:14;;;;;;;35.00;16.60;;;;;;;;;;5029354;28;20182;-73
2020/12/13 07:13:42;;;;;;;27.80;16.57;;;;;;;;;;5027931;28;20220;-73
2020/12/13 07:16:11;;;;;;;31.47;19.03;;;;;;;;;;5046265;28;20647;-72
2020/12/13 07:18:37;;;;;;;33.63;17.37;;;;;;;;;;5040906;28;20177;-72
2020/12/13 07:21:02;;;;;;;33.00;18.33;;;;;;;;;;5028060;28;21799;-73
2020/12/13 07:23:27;;;;;;;29.87;17.57;;;;;;;;;;5028422;28;20228;-73
2020/12/13 07:25:53;;;;;;;29.13;17.33;;;;;;;;;;5025219;28;20236;-73
2020/12/13 07:28:18;;;;;;;31.00;17.53;;;;;;;;;;5032877;28;20177;-73
2020/12/13 07:30:44;;;;;;;33.63;17.17;;;;;;;;;;5027643;28;20189;-73
2020/12/13 07:33:09;;;;;;;30.83;18.30;;;;;;;;;;5029070;28;20210;-73
2020/12/13 07:35:34;;;;;;;36.30;16.53;;;;;;;;;;5027922;28;20951;-72
2020/12/13 07:37:59;;;;;;;33.93;18.97;;;;;;;;;;5030019;28;20238;-72
2020/12/13 07:40:25;;;;;;;34.27;16.80;;;;;;;;;;5025833;28;20582;-73
2020/12/13 07:42:57;;;;;;;28.00;17.07;;;;;;;;;;5029433;28;20197;-73
2020/12/13 07:45:22;;;;;;;31.30;16.17;;;;;;;;;;5029080;28;20209;-73
2020/12/13 07:48:00;;;;;;;28.87;14.80;;;;;;;;;;5027803;28;20184;-73
2020/12/13 07:50:25;;;;;;;25.57;15.13;;;;;;;;;;5027864;28;20205;-73
2020/12/13 07:52:50;;;;;;;24.97;14.10;;;;;;;;;;5030534;28;20335;-73
2020/12/13 07:55:16;;;;;;;28.33;15.10;;;;;;;;;;5032757;28;20177;-73
2020/12/13 07:57:46;;;;;;;26.87;14.83;;;;;;;;;;5032026;28;20178;-75
2020/12/13 08:00:11;;;;;;;24.07;13.30;;;;;;;;;;5031265;28;20569;-73
2020/12/13 08:02:36;;;;;;;19.17;13.03;;;;;;;;;;5034126;28;20209;-73
2020/12/13 08:05:02;;;;;;;23.07;13.63;;;;;;;;;;5029709;28;20242;-74
2020/12/13 08:07:28;;;;;;;30.10;13.90;;;;;;;;;;5031286;28;20265;-74
2020/12/13 08:09:54;;;;;;;24.07;13.33;;;;;;;;;;5039729;28;20197;-74
2020/12/13 08:12:21;;;;;;;21.63;12.50;;;;;;;;;;5034470;28;20210;-75
2020/12/13 08:14:47;;;;;;;28.17;13.43;;;;;;;;;;5033430;28;20186;-75
2020/12/13 08:17:16;;;;;;;23.63;12.60;;;;;;;;;;5031198;28;20178;-74
2020/12/13 08:19:44;;;;;;;24.67;13.70;;;;;;;;;;5032265;28;20174;-74
2020/12/13 08:22:13;;;;;;;22.13;12.60;;;;;;;;;;5029664;28;20212;-74
2020/12/13 08:24:38;;;;;;;23.33;12.63;;;;;;;;;;5031044;28;20174;-73
2020/12/13 08:27:05;;;;;;;25.33;12.73;;;;;;;;;;5035221;28;20216;-75
2020/12/13 08:29:31;;;;;;;23.50;12.43;;;;;;;;;;5029593;28;20205;-74
2020/12/13 08:31:57;;;;;;;23.30;12.87;;;;;;;;;;5032413;28;20231;-74
2020/12/13 08:34:26;;;;;;;28.47;13.43;;;;;;;;;;5028405;28;20182;-75
2020/12/13 08:36:53;;;;;;;29.20;11.77;;;;;;;;;;5031059;28;20484;-74
2020/12/13 08:39:24;;;;;;;22.60;11.13;;;;;;;;;;5030076;28;20895;-74
2020/12/13 08:41:51;;;;;;;21.00;12.50;;;;;;;;;;5029680;28;20182;-74
2020/12/13 08:44:35;;;;;;;22.83;11.80;;;;;;;;;;5028552;28;20261;-73
2020/12/13 08:47:05;;;;;;;32.53;12.07;;;;;;;;;;5028281;28;20610;-74
2020/12/13 08:49:38;;;;;;;24.97;12.43;;;;;;;;;;5028781;28;20185;-74
2020/12/13 08:52:12;;;;;;;28.90;13.63;;;;;;;;;;5029462;28;20188;-73
2020/12/13 08:54:44;;;;;;;28.73;11.83;;;;;;;;;;5031724;28;20306;-74
2020/12/13 08:57:09;;;;;;;26.57;12.23;;;;;;;;;;5034407;28;20801;-74
2020/12/13 08:59:34;;;;;;;25.87;11.63;;;;;;;;;;5050223;28;20580;-74
2020/12/13 09:02:03;;;;;;;24.13;12.00;;;;;;;;;;5044631;28;20620;-74
2020/12/13 09:04:30;;;;;;;26.33;11.80;;;;;;;;;;5039764;28;20196;-75
2020/12/13 09:06:57;;;;;;;21.90;11.67;;;;;;;;;;5046210;28;20193;-73
2020/12/13 09:09:27;;;;;;;22.17;12.13;;;;;;;;;;5048229;28;20182;-73
2020/12/13 09:11:52;;;;;;;21.60;12.87;;;;;;;;;;5049219;28;20634;-75
2020/12/13 09:14:24;;;;;;;21.00;12.90;;;;;;;;;;5046970;28;20234;-73
2020/12/13 09:16:49;;;;;;;27.13;13.70;;;;;;;;;;5045860;28;20224;-73
2020/12/13 09:19:14;;;;;;;28.50;14.73;;;;;;;;;;5042861;28;20226;-74
2020/12/13 09:22:09;;;;;;;20.37;12.17;;;;;;;;;;5043917;28;20185;-74
2020/12/13 09:24:35;;;;;;;23.93;13.50;;;;;;;;;;5041655;28;20182;-74
2020/12/13 09:27:01;;;;;;;31.23;12.47;;;;;;;;;;5039509;28;20206;-74
2020/12/13 09:29:27;;;;;;;20.80;13.97;;;;;;;;;;5044296;28;20174;-73
2020/12/13 09:31:52;;;;;;;20.10;12.10;;;;;;;;;;5043915;28;20561;-74
2020/12/13 09:34:17;;;;;;;21.60;12.30;;;;;;;;;;5048016;28;20174;-73
2020/12/13 09:36:43;;;;;;;23.07;12.93;;;;;;;;;;5045435;28;20212;-73
2020/12/13 09:39:08;;;;;;;24.20;12.77;;;;;;;;;;5045494;28;20188;-73
2020/12/13 09:41:34;;;;;;;19.60;12.67;;;;;;;;;;5048970;28;20185;-74
2020/12/13 09:43:59;;;;;;;21.70;11.97;;;;;;;;;;5045417;28;20210;-74
2020/12/13 09:46:24;;;;;;;23.77;12.87;;;;;;;;;;5049146;28;20734;-74
2020/12/13 09:48:49;;;;;;;28.23;12.93;;;;;;;;;;5049595;28;20188;-74
2020/12/13 09:51:15;;;;;;;27.80;12.43;;;;;;;;;;5043413;28;20217;-74
2020/12/13 09:53:40;;;;;;;22.80;13.03;;;;;;;;;;5040032;28;20627;-74
2020/12/13 09:56:05;;;;;;;18.97;11.27;;;;;;;;;;5037843;28;20561;-75
2020/12/13 09:58:30;;;;;;;25.03;12.07;;;;;;;;;;5046227;28;20252;-74
2020/12/13 10:00:55;;;;;;;20.00;12.67;;;;;;;;;;5044933;28;20643;-74
2020/12/13 10:03:21;;;;;;;21.52;12.20;;;;;;;;;;5037406;28;20206;-74
2020/12/13 10:11:10;;;;;;;23.77;12.33;;;;;;;;;;5027273;28;20319;-74
2020/12/13 10:13:35;;;;;;;22.00;12.40;;;;;;;;;;5024421;28;20217;-74
2020/12/13 10:16:01;;;;;;;19.60;11.53;;;;;;;;;;5028591;28;20186;-74
2020/12/13 10:18:26;;;;;;;20.90;11.70;;;;;;;;;;5028928;28;20258;-74
2020/12/13 10:20:51;;;;;;;19.13;12.27;;;;;;;;;;5029083;28;20265;-74
2020/12/13 10:23:16;;;;;;;19.50;12.43;;;;;;;;;;5027334;28;21571;-74
2020/12/13 10:25:45;;;;;;;20.53;11.90;;;;;;;;;;5027952;28;20231;-74
2020/12/13 10:28:10;;;;;;;18.73;11.80;;;;;;;;;;5032168;28;20209;-74
2020/12/13 10:30:35;;;;;;;15.93;10.50;;;;;;;;;;5029030;28;20278;-74
2020/12/13 10:33:01;;;;;;;18.10;10.93;;;;;;;;;;5031687;28;20233;-74
2020/12/13 10:35:26;;;;;;;18.33;10.43;;;;;;;;;;5032255;28;20271;-74
2020/12/13 10:37:51;;;;;;;13.90;8.83;;;;;;;;;;5032840;28;20268;-75
2020/12/13 10:40:16;;;;;;;15.57;9.20;;;;;;;;;;5028732;28;20533;-74
2020/12/13 10:42:41;;;;;;;15.97;8.40;;;;;;;;;;5036716;28;20245;-71
2020/12/13 10:45:07;;;;;;;17.30;7.50;;;;;;;;;;5034794;28;20197;-74
2020/12/13 10:47:32;;;;;;;13.70;7.37;;;;;;;;;;5029719;28;20181;-73
2020/12/13 10:49:57;;;;;;;16.00;8.13;;;;;;;;;;5028930;28;20262;-74
2020/12/13 10:52:22;;;;;;;14.40;8.27;;;;;;;;;;5029477;28;20197;-74
2020/12/13 10:54:47;;;;;;;16.67;9.20;;;;;;;;;;5029341;28;20640;-74
2020/12/13 10:57:13;;;;;;;13.97;7.53;;;;;;;;;;5025495;28;20182;-73
2020/12/13 10:59:38;;;;;;;15.57;8.27;;;;;;;;;;5026045;28;20197;-74
2020/12/13 11:02:03;;;;;;;16.00;9.57;;;;;;;;;;5031854;28;20189;-74
2020/12/13 11:04:28;;;;;;;12.93;8.20;;;;;;;;;;5030180;28;20177;-74
2020/12/13 11:06:54;;;;;;;18.37;8.33;;;;;;;;;;5028790;28;20205;-74
2020/12/13 11:09:19;;;;;;;12.67;8.53;;;;;;;;;;5035014;28;20960;-74
2020/12/13 11:11:44;;;;;;;14.60;7.47;;;;;;;;;;5030106;28;20285;-75
2020/12/13 11:14:09;;;;;;;13.40;7.63;;;;;;;;;;5028528;28;20217;-75
2020/12/13 11:16:34;;;;;;;15.83;7.80;;;;;;;;;;5027645;28;20208;-74
2020/12/13 11:19:01;;;;;;;10.17;7.53;;;;;;;;;;5029048;28;20241;-75
2020/12/13 11:21:26;;;;;;;12.60;6.50;;;;;;;;;;5027074;28;20178;-74
2020/12/13 11:23:52;;;;;;;11.93;6.40;;;;;;;;;;5029838;28;20220;-74
2020/12/13 11:26:17;;;;;;;12.23;6.37;;;;;;;;;;5033120;28;20201;-74
2020/12/13 11:28:42;;;;;;;15.43;6.23;;;;;;;;;;5034069;28;20186;-74
2020/12/13 11:31:07;;;;;;;14.33;7.27;;;;;;;;;;5029260;28;20244;-74
2020/12/13 11:33:33;;;;;;;10.93;5.33;;;;;;;;;;5029626;28;20208;-74
2020/12/13 11:35:58;;;;;;;10.20;6.13;;;;;;;;;;5044720;28;20282;-73
2020/12/13 11:38:23;;;;;;;10.70;5.23;;;;;;;;;;5032091;28;20774;-73
2020/12/13 11:40:48;;;;;;;9.07;5.87;;;;;;;;;;5027769;28;20296;-73
2020/12/13 11:43:13;;;;;;;9.60;5.50;;;;;;;;;;5032828;28;21447;-74
2020/12/13 11:45:38;;;;;;;10.20;5.80;;;;;;;;;;5027604;28;20205;-73
2020/12/13 11:48:04;;;;;;;13.87;6.30;;;;;;;;;;5028394;28;20178;-74
2020/12/13 11:50:40;;;;;;;13.30;5.33;;;;;;;;;;5030556;28;20197;-74
2020/12/13 11:53:05;;;;;;;10.37;5.73;;;;;;;;;;5027277;28;20285;-74
2020/12/13 11:55:30;;;;;;;10.65;6.00;;;;;;;;;;5039236;28;20261;-73
2020/12/13 11:57:55;;;;;;;10.83;5.10;;;;;;;;;;5044385;28;20181;-74
2020/12/13 12:00:20;;;;;;;9.43;5.77;;;;;;;;;;5040054;28;20608;-74
2020/12/13 12:02:45;;;;;;;11.43;4.47;;;;;;;;;;5041631;28;20205;-74
2020/12/13 12:05:11;;;;;;;9.10;4.87;;;;;;;;;;5023694;28;20254;-74
2020/12/13 12:07:36;;;;;;;7.27;4.23;;;;;;;;;;5029247;28;20191;-74
2020/12/13 12:10:01;;;;;;;9.47;4.53;;;;;;;;;;5029387;28;20193;-74
2020/12/13 12:12:26;;;;;;;13.10;4.67;;;;;;;;;;5039991;28;20632;-75
2020/12/13 12:14:51;;;;;;;12.03;4.50;;;;;;;;;;5026269;28;20235;-74
2020/12/13 12:17:17;;;;;;;8.30;4.70;;;;;;;;;;5025640;28;20213;-74
2020/12/13 12:19:42;;;;;;;6.83;3.80;;;;;;;;;;5031275;28;21011;-74
2020/12/13 12:22:08;;;;;;;11.97;4.37;;;;;;;;;;5031023;28;20632;-74
2020/12/13 12:24:33;;;;;;;7.93;4.27;;;;;;;;;;5027712;28;20192;-73
2020/12/13 12:27:00;;;;;;;8.40;4.27;;;;;;;;;;5035076;28;20259;-73
2020/12/13 12:29:25;;;;;;;10.60;4.43;;;;;;;;;;5036614;28;20205;-74
2020/12/13 12:31:50;;;;;;;5.77;3.43;;;;;;;;;;5030717;28;22303;-73
2020/12/13 12:34:16;;;;;;;8.93;4.10;;;;;;;;;;5026316;28;20682;-75
2020/12/13 12:36:41;;;;;;;9.97;3.90;;;;;;;;;;5030746;28;20188;-73
2020/12/13 12:39:07;;;;;;;8.07;3.30;;;;;;;;;;5031448;28;20182;-75
2020/12/13 12:41:33;;;;;;;4.90;3.00;;;;;;;;;;5034458;28;20177;-74
2020/12/13 12:43:58;;;;;;;8.63;4.20;;;;;;;;;;5051041;28;20219;-73
2020/12/13 12:46:23;;;;;;;8.20;3.53;;;;;;;;;;5031618;28;21395;-73
2020/12/13 12:48:48;;;;;;;9.43;3.90;;;;;;;;;;5029664;28;20186;-72
2020/12/13 12:51:17;;;;;;;10.03;4.40;;;;;;;;;;5032659;28;20694;-73
2020/12/13 12:53:42;;;;;;;7.10;3.70;;;;;;;;;;5032294;28;20198;-74
2020/12/13 12:56:09;;;;;;;7.77;4.10;;;;;;;;;;5028924;28;20208;-74
2020/12/13 12:58:43;;;;;;;6.70;3.60;;;;;;;;;;5033455;28;20217;-72
2020/12/13 13:01:15;;;;;;;7.50;3.90;;;;;;;;;;5029552;28;20677;-73
2020/12/13 13:03:40;;;;;;;8.27;3.80;;;;;;;;;;5029092;28;20239;-73
2020/12/13 13:06:20;;;;;;;6.90;3.90;;;;;;;;;;5031055;28;20213;-73
2020/12/13 13:08:50;;;;;;;8.23;4.17;;;;;;;;;;5032604;28;20696;-73
2020/12/13 13:11:22;;;;;;;10.73;4.33;;;;;;;;;;5032001;28;20225;-75
2020/12/13 13:13:47;;;;;;;11.20;4.13;;;;;;;;;;5034842;28;20209;-72
2020/12/13 13:16:18;;;;;;;8.73;4.97;;;;;;;;;;5031490;28;20240;-72
2020/12/13 13:18:44;;;;;;;7.50;3.70;;;;;;;;;;5031913;28;20316;-74
2020/12/13 13:21:10;;;;;;;7.30;4.03;;;;;;;;;;5031351;28;20240;-74
2020/12/13 13:23:39;;;;;;;9.50;3.87;;;;;;;;;;5030053;28;20193;-74
2020/12/13 13:26:04;;;;;;;13.10;4.73;;;;;;;;;;5030126;28;20205;-74
2020/12/13 13:28:29;;;;;;;9.67;4.30;;;;;;;;;;5037718;28;20181;-74
2020/12/13 13:30:54;;;;;;;11.40;4.47;;;;;;;;;;5030909;28;20173;-74
2020/12/13 13:33:20;;;;;;;12.43;4.57;;;;;;;;;;5032675;28;20244;-74
2020/12/13 13:35:45;;;;;;;9.77;4.30;;;;;;;;;;5030065;28;20191;-73
2020/12/13 13:38:10;;;;;;;6.07;3.90;;;;;;;;;;5032186;28;20262;-74
2020/12/13 13:40:36;;;;;;;9.40;3.67;;;;;;;;;;5029473;28;20962;-75
2020/12/13 13:43:05;;;;;;;9.93;4.17;;;;;;;;;;5046764;28;20305;-76
2020/12/13 13:50:26;;;;;;;10.30;3.97;;;;;;;;;;5031451;28;20177;-74
2020/12/13 13:52:52;;;;;;;10.90;4.33;;;;;;;;;;5030615;28;20209;-73
2020/12/13 13:55:21;;;;;;;8.90;3.80;;;;;;;;;;5030400;28;20226;-75
2020/12/13 13:57:47;;;;;;;11.63;3.97;;;;;;;;;;5035924;28;20170;-75
2020/12/13 14:00:12;;;;;;;9.57;5.00;;;;;;;;;;5029916;28;20801;-74
2020/12/13 14:02:37;;;;;;;9.73;4.60;;;;;;;;;;5033603;28;20209;-75
2020/12/13 14:05:05;;;;;;;13.77;4.60;;;;;;;;;;5033116;28;20178;-75
2020/12/13 14:07:51;;;;;;;9.90;4.43;;;;;;;;;;5030088;28;20555;-74
2020/12/13 14:10:16;;;;;;;8.07;4.07;;;;;;;;;;5030503;28;20216;-75
2020/12/13 14:12:41;;;;;;;10.13;3.90;;;;;;;;;;5032096;28;20354;-74
2020/12/13 14:15:06;;;;;;;16.10;4.80;;;;;;;;;;5036353;28;20273;-76
2020/12/13 14:17:33;;;;;;;6.87;4.47;;;;;;;;;;5032354;28;20636;-75
2020/12/13 14:19:59;;;;;;;7.53;4.17;;;;;;;;;;5039271;28;20189;-75
2020/12/13 14:22:24;;;;;;;10.70;6.47;;;;;;;;;;5032957;28;20194;-74
2020/12/13 14:24:49;;;;;;;9.20;4.30;;;;;;;;;;5031087;28;20182;-74
2020/12/13 14:27:14;;;;;;;11.03;4.33;;;;;;;;;;5031644;28;20194;-74
2020/12/13 14:29:39;;;;;;;12.67;4.37;;;;;;;;;;5033235;28;20229;-75
2020/12/13 14:32:04;;;;;;;10.57;3.50;;;;;;;;;;5032381;28;20197;-75
2020/12/13 14:34:30;;;;;;;6.73;3.87;;;;;;;;;;5030365;28;20178;-76